KONP

Newport Municipal Airport

Newport, Oregon, USA
KONP 170548Z 1706/1806 06008KT P6SM SKC FM171400 06010G18KT P6SM SKC
Issued Valid From Valid To
Nov-17 @ 05:48 UTC
(3 hours ago)
Nov-17 @ 06:00 UTC
(3 hours ago)
Nov-18 @ 06:00 UTC
(in 21 hours)
Nov-17 @ 06:00 to Nov-17 @ 14:00
KONP 170548Z 1706/1806 06008KT P6SM SKC
Wind Visibility Clouds
60° at 8 knots Greater than 6 miles
  • Clear skies
From Nov-17 @ 14:00 to Nov-18 @ 06:00
FM171400 06010G18KT P6SM SKC
Wind Visibility Clouds
60° at 10 knots
 Gusting to 18 knots
Greater than 6 miles
  • Clear skies
KONP 170548Z 1706/1806 06008KT P6SM SKC FM171400 06010G18KT P6SM SKC
Issued Nov-17 @ 05:48 UTC
(3 hours ago)
Valid From Nov-17 @ 06:00 UTC
(3 hours ago)
Valid To Nov-18 @ 06:00 UTC
(in 21 hours)
Nov-17 @ 06:00 - Nov-17 @ 14:00
Wind Visibility
60° at 8 knots Greater than 6 miles
Clouds
  • Clear skies
From Nov-17 @ 14:00 - Nov-18 @ 06:00
Wind Visibility
60° at 10 knots
 Gusting to 18 knots
Greater than 6 miles
Clouds
  • Clear skies